Val-d'Or Airport
CYVO : now visible

Airfield :











YOU CAN JOIN US ON...

 
LOGIN :

Register | Disclaimer

   EN    FR    IT 

 









Legend :    VFR   Marginal VFR   IFR   Intensive IFR   Very Intensive IFR
Visi :
Ceiling :
>= 8 km
>= 3000ft
5 to 8 km
1000 to 3000 ft
1500m to 5 km
500 to 1000 ft
800 to 1500m
200 to 500 ft
< 800m
< 200 ft
Symbols :   Thunderstorms  Fog  Heavy snow  Heavy precipitations  Wind > 20 kt






- Airport Elevation : 1107 ft
- IATA code : YVO


CYVO - Val-d'Or

CURRENT METAR :
  • 142019Z 35009KT 1 1/4SM BR OVC002 M02/M02 A2942 RMK ST8 SLP983

EXPIRED METARs :
  • 142000Z 35009KT 5/8SM R18/5000VP6000FT/N BR OVC002 M02/M02 A2943 RMK ST8 SLP987
  • 141943Z 36009KT 3/4SM R18/P6000FT/U BR OVC002 M02/M02 A2944 RMK ST8 SLP991
  • 141921Z 01007KT 1 1/4SM BR OVC002 M01/M01 A2946 RMK ST8 SLP998
  • 141900Z 01006KT 1 1/2SM BR OVC003 M01/M01 A2948 RMK ST8 SLP003
  • 141822Z 03006KT 2SM BR OVC004 M01/M01 A2950 RMK ST8 SLP010
  • 141800Z 02005KT 3SM BR OVC004 M01/M01 A2950 RMK ST8 SLP012

TAF TAF CYVO
Valid from the 14 at 18:00 until the 15 at 06:00 UTC


141741Z 1418/1506 02005KT 3SM BR OVC004
TEMPO 1418/1420 6SM -SN SCT004 OVC010
FM142000 36010G20KT 1SM -SN OVC007
TEMPO 1420/1506 3SM -SN OVC010
BECMG 1501/1503 31015G25KT RMK NXT FCST BY 150000Z



MET'MAP, your aeronautical weather chart ! - Copyright ORBIFLY December 2007 - Disclaimer

ORBIFLY MET'MAP TEAM :

Programming & Development : Alexandra Zaïnal
Concept & original design : Baudouin d'Aumeries
Assistance for programming : Marc-Olivier Méhu
Technical & hardware support : Manuel Goepfert

Contact : metmap@orbifly.com




SOURCES & CREDITS :

   NOAA       Earth
Advisory